createdAt,value
2018-06-28T00:02:02.457Z,2.60
2018-06-28T00:04:32.706Z,2.90
2018-06-28T00:07:02.814Z,2.87
2018-06-28T00:09:32.932Z,3.10
2018-06-28T00:12:03.163Z,2.70
2018-06-28T00:14:33.186Z,2.77
2018-06-28T00:17:03.310Z,2.90
2018-06-28T00:19:33.513Z,2.83
2018-06-28T00:22:03.678Z,3.03
2018-06-28T00:24:34.624Z,3.17
2018-06-28T00:27:04.952Z,2.80
2018-06-28T00:29:35.205Z,2.73
2018-06-28T00:32:05.333Z,3.30
2018-06-28T00:34:35.536Z,2.87
2018-06-28T00:37:05.669Z,2.83
2018-06-28T00:39:35.795Z,3.00
2018-06-28T00:42:05.959Z,2.80
2018-06-28T00:44:36.117Z,3.00
2018-06-28T00:47:06.207Z,3.00
2018-06-28T00:49:36.373Z,2.73
2018-06-28T00:52:06.527Z,2.80
2018-06-28T00:54:37.258Z,3.27
2018-06-28T00:57:07.476Z,2.43
2018-06-28T00:59:37.637Z,3.03
2018-06-28T01:02:07.922Z,2.83
2018-06-28T01:04:38.021Z,3.00
2018-06-28T01:07:08.197Z,2.97
2018-06-28T01:09:38.277Z,2.67
2018-06-28T01:12:08.599Z,3.00
2018-06-28T01:14:38.695Z,2.67
2018-06-28T01:17:08.835Z,2.77
2018-06-28T01:19:39.643Z,3.43
2018-06-28T01:22:09.791Z,3.43
2018-06-28T01:24:40.097Z,3.70
2018-06-28T01:27:10.346Z,3.07
2018-06-28T01:29:40.524Z,2.77
2018-06-28T01:32:10.685Z,3.20
2018-06-28T01:34:40.823Z,2.90
2018-06-28T01:37:11.109Z,2.83
2018-06-28T01:39:41.229Z,3.07
2018-06-28T01:43:00.287Z,2.83
2018-06-28T01:45:30.429Z,2.40
2018-06-28T01:48:00.661Z,3.13
2018-06-28T01:50:31.214Z,3.20
2018-06-28T01:53:01.967Z,3.17
2018-06-28T01:55:32.001Z,3.60
2018-06-28T01:58:02.225Z,4.20
2018-06-28T02:00:32.309Z,3.63
2018-06-28T02:03:02.465Z,3.80
2018-06-28T02:05:32.549Z,3.27
2018-06-28T02:08:02.684Z,3.43
2018-06-28T02:10:32.843Z,3.77
2018-06-28T02:13:03.731Z,3.17
2018-06-28T02:15:34.639Z,3.13
2018-06-28T02:18:05.274Z,3.40
2018-06-28T02:20:35.423Z,3.73
2018-06-28T02:23:05.589Z,3.40
2018-06-28T02:25:35.868Z,3.57
2018-06-28T02:28:06.300Z,3.60
2018-06-28T02:30:36.468Z,3.53
2018-06-28T02:33:06.595Z,3.83
2018-06-28T02:35:36.731Z,3.70
2018-06-28T02:38:06.920Z,3.60
2018-06-28T02:40:37.175Z,3.80
2018-06-28T02:43:07.438Z,3.77
2018-06-28T02:45:37.627Z,3.00
2018-06-28T02:48:07.855Z,3.30
2018-06-28T02:50:38.011Z,2.87
2018-06-28T02:53:08.632Z,3.23
2018-06-28T02:55:38.693Z,3.63
2018-06-28T02:58:08.937Z,3.27
2018-06-28T03:00:39.083Z,3.67
2018-06-28T03:03:09.562Z,3.00
2018-06-28T03:05:39.595Z,3.50
2018-06-28T03:08:09.647Z,3.40
2018-06-28T03:10:39.680Z,3.27
2018-06-28T03:13:09.901Z,3.37
2018-06-28T03:15:40.120Z,3.77
2018-06-28T03:18:10.255Z,3.60
2018-06-28T03:20:40.299Z,3.37
2018-06-28T03:23:10.395Z,3.20
2018-06-28T03:25:40.484Z,3.70
2018-06-28T03:28:10.600Z,3.73
2018-06-28T03:30:40.812Z,3.27
2018-06-28T03:33:10.845Z,3.63
2018-06-28T03:35:40.916Z,3.60
2018-06-28T03:38:11.435Z,3.33
2018-06-28T03:40:41.548Z,3.17
2018-06-28T03:43:11.648Z,3.07
2018-06-28T03:45:41.684Z,3.30
2018-06-28T03:48:11.766Z,4.00
2018-06-28T03:50:41.880Z,3.13
2018-06-28T03:53:12.012Z,3.43
2018-06-28T03:55:42.102Z,3.63
2018-06-28T03:58:12.234Z,3.37
2018-06-28T04:00:42.369Z,3.67
2018-06-28T04:03:12.448Z,4.17
2018-06-28T04:05:42.542Z,4.30
2018-06-28T04:08:12.659Z,4.03
2018-06-28T04:10:42.794Z,3.80
2018-06-28T04:13:12.933Z,4.20
2018-06-28T04:15:42.974Z,4.07
2018-06-28T04:18:13.099Z,3.67
2018-06-28T04:20:43.158Z,3.50
2018-06-28T04:23:13.896Z,4.07
2018-06-28T04:25:44.112Z,3.50
2018-06-28T04:28:14.372Z,3.33
2018-06-28T04:30:44.532Z,3.60
2018-06-28T04:33:14.975Z,3.03
2018-06-28T04:35:45.033Z,3.63
2018-06-28T04:38:15.508Z,3.03
2018-06-28T04:40:46.645Z,3.33
2018-06-28T04:43:16.865Z,3.00
2018-06-28T04:45:46.949Z,3.60
2018-06-28T04:48:17.168Z,4.17
2018-06-28T04:50:47.286Z,3.37
2018-06-28T04:53:17.541Z,4.10
2018-06-28T04:55:47.669Z,3.90
2018-06-28T04:58:18.058Z,3.40
2018-06-28T05:00:48.300Z,3.20
2018-06-28T05:03:19.199Z,3.70
2018-06-28T05:05:49.360Z,3.47
2018-06-28T05:08:19.476Z,3.37
2018-06-28T05:10:49.825Z,3.27
2018-06-28T05:13:19.927Z,3.40
2018-06-28T05:15:50.042Z,3.83
2018-06-28T05:18:20.292Z,4.07
2018-06-28T05:20:50.406Z,3.63
2018-06-28T05:23:20.438Z,3.47
2018-06-28T05:25:50.602Z,3.33
2018-06-28T05:28:21.236Z,3.67
2018-06-28T05:30:51.331Z,3.07
2018-06-28T05:33:21.484Z,3.20
2018-06-28T05:35:51.759Z,3.57
2018-06-28T05:38:21.959Z,3.50
2018-06-28T05:40:52.121Z,3.77
2018-06-28T05:43:22.309Z,3.77
2018-06-28T05:45:52.492Z,4.20
2018-06-28T05:48:22.577Z,4.57
2018-06-28T05:50:52.672Z,4.40
2018-06-28T05:53:22.939Z,3.93
2018-06-28T05:55:52.968Z,4.63
2018-06-28T05:58:23.623Z,4.30
2018-06-28T06:00:53.713Z,4.53
2018-06-28T06:03:24.421Z,3.40
2018-06-28T06:05:54.794Z,3.33
2018-06-28T06:08:24.867Z,3.50
2018-06-28T06:10:55.008Z,3.30
2018-06-28T06:13:25.107Z,3.33
2018-06-28T06:15:55.199Z,3.73
2018-06-28T06:18:25.315Z,4.50
2018-06-28T06:20:55.499Z,4.50
2018-06-28T06:23:25.607Z,3.83
2018-06-28T06:25:55.769Z,4.30
2018-06-28T06:28:25.847Z,3.83
2018-06-28T06:30:56.067Z,4.53
2018-06-28T06:33:26.197Z,4.40
2018-06-28T06:35:56.451Z,3.80
2018-06-28T06:38:26.661Z,3.30
2018-06-28T06:40:56.859Z,3.80
2018-06-28T06:43:26.993Z,4.23
2018-06-28T06:45:57.207Z,3.90
2018-06-28T06:48:27.300Z,3.10
2018-06-28T06:50:57.386Z,3.40
2018-06-28T06:53:27.621Z,4.13
2018-06-28T06:55:57.950Z,4.23
2018-06-28T06:58:28.118Z,4.17
2018-06-28T07:00:58.252Z,3.63
2018-06-28T07:03:28.337Z,4.20
2018-06-28T07:05:59.015Z,3.30
2018-06-28T07:08:29.446Z,3.23
2018-06-28T07:10:59.163Z,3.87
2018-06-28T07:13:29.188Z,3.70
2018-06-28T07:15:59.538Z,3.53
2018-06-28T07:18:29.690Z,3.70
2018-06-28T07:20:59.882Z,4.13
2018-06-28T07:23:30.264Z,3.50
2018-06-28T07:26:00.914Z,3.40
2018-06-28T07:28:31.184Z,3.60
2018-06-28T07:31:01.189Z,3.33
2018-06-28T07:33:31.402Z,3.67
2018-06-28T07:36:01.486Z,4.03
2018-06-28T07:38:31.628Z,4.00
2018-06-28T07:41:01.898Z,3.77
2018-06-28T07:43:32.063Z,4.00
2018-06-28T07:46:02.199Z,2.60
2018-06-28T07:48:32.785Z,3.17
2018-06-28T07:51:03.225Z,3.40
2018-06-28T07:53:33.371Z,3.30
2018-06-28T07:56:04.099Z,3.37
2018-06-28T07:58:34.448Z,3.23
2018-06-28T08:01:04.367Z,3.50
2018-06-28T08:03:34.551Z,3.53
2018-06-28T08:06:04.669Z,3.87
2018-06-28T08:08:34.841Z,3.40
2018-06-28T08:11:04.890Z,3.67
2018-06-28T08:13:35.097Z,3.50
2018-06-28T08:16:05.180Z,3.40
2018-06-28T08:18:35.306Z,3.90
2018-06-28T08:21:05.511Z,3.97
2018-06-28T08:23:35.990Z,3.40
2018-06-28T08:26:06.314Z,3.53
2018-06-28T08:28:36.446Z,3.67
2018-06-28T08:31:06.672Z,3.50
2018-06-28T08:33:37.762Z,3.70
2018-06-28T08:36:07.833Z,3.37
2018-06-28T08:38:37.944Z,3.23
2018-06-28T08:41:08.087Z,2.50
2018-06-28T08:43:38.274Z,3.10
2018-06-28T08:46:08.380Z,3.60
2018-06-28T08:48:38.614Z,3.80
2018-06-28T08:51:08.801Z,3.43
2018-06-28T08:53:39.203Z,3.77
2018-06-28T08:56:09.279Z,3.77
2018-06-28T08:58:39.405Z,4.27
2018-06-28T09:01:09.630Z,3.73
2018-06-28T09:03:39.801Z,3.40
2018-06-28T09:06:10.358Z,3.70
2018-06-28T09:08:40.827Z,3.60
2018-06-28T09:11:10.988Z,3.80
2018-06-28T09:13:41.180Z,3.40
2018-06-28T09:16:11.330Z,2.90
2018-06-28T09:18:41.492Z,3.40
2018-06-28T09:21:11.626Z,3.80
2018-06-28T09:23:42.392Z,3.50
2018-06-28T09:26:13.210Z,3.80
2018-06-28T09:28:43.358Z,3.30
2018-06-28T09:31:13.511Z,3.80
2018-06-28T09:33:43.704Z,2.97
2018-06-28T09:36:13.859Z,2.97
2018-06-28T09:38:44.014Z,3.07
2018-06-28T09:41:14.331Z,2.90
2018-06-28T09:43:44.529Z,3.17
2018-06-28T09:46:14.899Z,3.30
2018-06-28T09:48:45.314Z,2.83
2018-06-28T09:51:15.417Z,3.23
2018-06-28T09:53:45.505Z,3.13
2018-06-28T09:56:15.607Z,3.57
2018-06-28T09:58:45.849Z,3.00
2018-06-28T10:01:15.909Z,3.20
2018-06-28T10:03:46.164Z,2.70
2018-06-28T10:06:16.293Z,2.60
2018-06-28T10:08:46.387Z,1.90
2018-06-28T10:11:16.513Z,3.03
2018-06-28T10:13:46.818Z,2.63
2018-06-28T10:16:17.012Z,2.63
2018-06-28T10:18:47.185Z,2.97
2018-06-28T10:21:17.361Z,3.80
2018-06-28T10:23:47.579Z,3.23
2018-06-28T10:26:17.351Z,3.40
2018-06-28T10:28:47.585Z,3.20
2018-06-28T10:31:17.713Z,3.40
2018-06-28T10:33:47.897Z,3.27
2018-06-28T10:36:18.066Z,2.53
2018-06-28T10:38:48.184Z,2.33
2018-06-28T10:41:18.403Z,2.10
2018-06-28T10:43:48.623Z,2.50
2018-06-28T10:46:18.963Z,3.13
2018-06-28T10:48:49.042Z,2.73
2018-06-28T10:51:19.137Z,2.80
2018-06-28T10:53:49.301Z,3.10
2018-06-28T10:56:19.355Z,3.03
2018-06-28T10:58:49.497Z,2.50
2018-06-28T11:01:19.603Z,3.13
2018-06-28T11:03:50.386Z,2.93
2018-06-28T11:06:20.464Z,2.90
2018-06-28T11:08:50.733Z,2.77
2018-06-28T11:11:20.823Z,2.73
2018-06-28T11:13:50.967Z,2.57
2018-06-28T11:16:21.271Z,2.40
2018-06-28T11:18:51.491Z,2.77
2018-06-28T11:21:21.627Z,3.10
2018-06-28T11:23:51.643Z,2.50
2018-06-28T11:26:21.743Z,2.57
2018-06-28T11:28:51.916Z,2.60
2018-06-28T11:31:22.094Z,2.37
2018-06-28T11:33:52.235Z,2.70
2018-06-28T11:36:22.343Z,2.60
2018-06-28T11:38:52.433Z,2.47
2018-06-28T11:41:22.616Z,2.50
2018-06-28T11:43:52.980Z,2.80
2018-06-28T11:46:23.107Z,2.50
2018-06-28T11:48:53.306Z,2.63
2018-06-28T11:51:23.669Z,2.80
2018-06-28T11:53:53.834Z,2.50
2018-06-28T11:56:24.074Z,2.60
2018-06-28T11:58:54.307Z,2.57
2018-06-28T12:01:24.454Z,2.40
2018-06-28T12:03:54.585Z,2.50
2018-06-28T12:06:24.710Z,2.77
2018-06-28T12:08:55.392Z,3.13
2018-06-28T12:11:25.924Z,2.43
2018-06-28T12:13:56.386Z,3.53
2018-06-28T12:16:26.526Z,2.63
2018-06-28T12:18:56.866Z,2.00
2018-06-28T12:21:27.046Z,3.10
2018-06-28T12:23:57.769Z,2.47
2018-06-28T12:26:27.768Z,2.97
2018-06-28T12:28:58.102Z,2.50
2018-06-28T12:31:28.218Z,3.00
2018-06-28T12:33:58.818Z,2.97
2018-06-28T12:36:29.374Z,3.30
2018-06-28T12:38:59.520Z,2.47
2018-06-28T12:41:29.662Z,3.10
2018-06-28T12:43:59.817Z,2.67
2018-06-28T12:47:46.821Z,2.50
2018-06-28T12:50:16.953Z,2.43
2018-06-28T12:53:06.536Z,2.40
2018-06-28T12:56:49.653Z,2.30
2018-06-28T12:59:21.786Z,2.67
2018-06-28T13:01:52.075Z,2.63
2018-06-28T13:04:22.283Z,2.90
2018-06-28T13:06:52.488Z,2.83
2018-06-28T13:09:22.658Z,3.13
2018-06-28T13:11:52.866Z,2.63
2018-06-28T13:14:24.319Z,2.30
2018-06-28T13:16:54.486Z,2.33
2018-06-28T13:19:24.559Z,2.73
2018-06-28T13:21:54.594Z,2.50
2018-06-28T13:24:24.689Z,2.80
2018-06-28T13:26:54.847Z,2.50
2018-06-28T13:29:25.081Z,2.70
2018-06-28T13:31:55.281Z,2.50
2018-06-28T13:34:25.386Z,2.93
2018-06-28T13:36:56.154Z,2.20
2018-06-28T13:39:26.315Z,3.13
2018-06-28T13:41:56.553Z,3.10
2018-06-28T13:44:26.718Z,2.73
2018-06-28T13:46:56.950Z,2.53
2018-06-28T13:49:27.039Z,2.50
2018-06-28T13:51:57.220Z,1.97
2018-06-28T13:54:28.626Z,1.93
2018-06-28T13:56:58.725Z,1.90
2018-06-28T13:59:29.027Z,1.60
2018-06-28T14:01:59.163Z,1.70
2018-06-28T14:04:29.261Z,1.80
2018-06-28T14:06:59.403Z,1.67
2018-06-28T14:09:29.545Z,1.27
2018-06-28T14:11:59.764Z,1.83
2018-06-28T14:14:30.294Z,2.50
2018-06-28T14:17:00.758Z,2.70
2018-06-28T14:19:30.883Z,2.47
2018-06-28T14:22:01.273Z,2.00
2018-06-28T14:24:31.398Z,1.80
2018-06-28T14:27:02.376Z,1.57
2018-06-28T14:29:32.591Z,1.77
2018-06-28T14:32:02.724Z,2.00
2018-06-28T14:34:32.950Z,2.40
2018-06-28T14:37:03.159Z,2.60
2018-06-28T14:39:33.293Z,2.47
2018-06-28T14:42:03.483Z,2.73
2018-06-28T14:44:33.721Z,3.10
2018-06-28T14:47:03.874Z,3.17
2018-06-28T14:49:34.033Z,3.70
2018-06-28T14:52:04.304Z,3.80
2018-06-28T14:54:34.497Z,3.30
2018-06-28T14:57:04.853Z,3.70
2018-06-28T14:59:35.058Z,3.50
2018-06-28T15:02:05.392Z,3.57
2018-06-28T15:04:35.596Z,3.97
2018-06-28T15:07:05.924Z,4.07
2018-06-28T15:09:36.110Z,4.00
2018-06-28T15:12:06.780Z,4.47
2018-06-28T15:14:36.925Z,4.67
2018-06-28T15:17:07.646Z,4.30
2018-06-28T15:19:37.786Z,4.33
2018-06-28T15:22:08.169Z,4.93
2018-06-28T15:24:38.249Z,5.03
2018-06-28T15:27:08.737Z,4.77
2018-06-28T15:29:38.868Z,4.53
2018-06-28T15:32:09.303Z,5.00
2018-06-28T15:34:39.398Z,4.33
2018-06-28T15:37:10.188Z,4.00
2018-06-28T15:39:40.401Z,4.07
2018-06-28T15:42:11.007Z,4.00
2018-06-28T15:44:42.130Z,3.83
2018-06-28T15:47:12.390Z,3.97
2018-06-28T15:49:42.929Z,3.60
2018-06-28T15:52:13.120Z,4.30
2018-06-28T15:54:43.251Z,3.20
2018-06-28T15:57:13.318Z,3.50
2018-06-28T15:59:43.524Z,3.10
2018-06-28T16:02:13.750Z,3.10
2018-06-28T16:04:43.895Z,2.87
2018-06-28T16:07:14.036Z,3.90
2018-06-28T16:09:44.202Z,3.23
2018-06-28T16:12:14.411Z,3.47
2018-06-28T16:14:44.477Z,2.83
2018-06-28T16:17:14.860Z,3.47
2018-06-28T16:19:44.950Z,3.10
2018-06-28T16:22:15.059Z,3.50
2018-06-28T16:24:45.171Z,2.90
2018-06-28T16:27:15.337Z,3.10
2018-06-28T16:29:45.417Z,2.80
2018-06-28T16:32:15.546Z,3.20
2018-06-28T16:34:45.766Z,2.53
2018-06-28T16:37:15.981Z,3.43
2018-06-28T16:39:46.197Z,3.20
2018-06-28T16:42:16.417Z,3.30
2018-06-28T16:44:46.582Z,3.63
2018-06-28T16:47:16.649Z,3.20
2018-06-28T16:49:46.850Z,3.63
2018-06-28T16:52:17.211Z,3.80
2018-06-28T16:54:47.335Z,3.60
2018-06-28T16:57:17.483Z,3.40
2018-06-28T16:59:47.626Z,4.23
2018-06-28T17:02:17.869Z,4.20
2018-06-28T17:04:47.994Z,3.53
2018-06-28T17:07:18.148Z,3.53
2018-06-28T17:09:48.916Z,4.37
2018-06-28T17:12:19.049Z,4.13
2018-06-28T17:14:49.888Z,3.73
2018-06-28T17:17:20.184Z,3.77
2018-06-28T17:19:50.382Z,3.80
2018-06-28T17:22:20.712Z,4.20
2018-06-28T17:24:50.882Z,3.23
2018-06-28T17:27:21.049Z,4.53
2018-06-28T17:29:51.234Z,4.63
2018-06-28T17:32:21.392Z,4.60
2018-06-28T17:34:52.330Z,4.50
2018-06-28T17:37:22.575Z,4.20
2018-06-28T17:39:52.663Z,4.20
2018-06-28T17:42:22.867Z,4.60
2018-06-28T17:44:52.929Z,3.97
2018-06-28T17:47:23.159Z,4.57
2018-06-28T17:50:05.747Z,4.40
2018-06-28T17:52:35.925Z,4.17
2018-06-28T17:55:06.171Z,4.73
2018-06-28T17:57:36.496Z,4.70
2018-06-28T18:00:07.677Z,4.33
2018-06-28T18:02:39.735Z,5.40
2018-06-28T18:05:09.948Z,5.00
2018-06-28T18:07:40.137Z,4.70
2018-06-28T18:10:10.566Z,5.43
2018-06-28T18:12:41.210Z,4.43
2018-06-28T18:15:11.451Z,4.87
2018-06-28T18:17:41.740Z,4.30
2018-06-28T18:20:11.813Z,4.90
2018-06-28T18:22:42.066Z,4.90
2018-06-28T18:25:12.127Z,4.67
2018-06-28T18:27:42.301Z,4.63
2018-06-28T18:30:12.482Z,4.63
2018-06-28T18:32:43.221Z,4.00
2018-06-28T18:35:13.647Z,3.90
2018-06-28T18:37:44.390Z,4.50
2018-06-28T18:40:14.531Z,4.73
2018-06-28T18:42:44.621Z,4.80
2018-06-28T18:45:14.802Z,4.90
2018-06-28T18:47:44.876Z,4.90
2018-06-28T18:50:16.113Z,4.50
2018-06-28T18:52:46.534Z,4.43
2018-06-28T18:55:16.726Z,4.03
2018-06-28T18:57:46.913Z,4.43
2018-06-28T19:00:17.048Z,4.20
2018-06-28T19:02:47.206Z,4.40
2018-06-28T19:05:17.274Z,4.57
2018-06-28T19:07:47.353Z,4.60
2018-06-28T19:10:22.842Z,4.73
2018-06-28T19:12:53.938Z,4.50
2018-06-28T19:15:29.158Z,4.80
2018-06-28T19:17:59.343Z,5.20
2018-06-28T19:20:29.550Z,4.40
2018-06-28T19:24:09.184Z,4.37
2018-06-28T19:26:39.215Z,3.60
2018-06-28T19:29:14.709Z,3.50
2018-06-28T19:31:50.042Z,3.20
2018-06-28T19:34:20.142Z,4.13
2018-06-28T19:36:50.240Z,5.13
2018-06-28T19:39:25.656Z,4.50
2018-06-28T19:42:01.122Z,4.47
2018-06-28T19:44:31.136Z,4.00
2018-06-28T19:47:02.540Z,3.73
2018-06-28T19:49:38.019Z,3.10
2018-06-28T19:52:13.287Z,3.57
2018-06-28T19:54:43.439Z,5.03
2018-06-28T19:57:13.962Z,4.37
2018-06-28T19:59:47.412Z,4.53
2018-06-28T20:02:23.144Z,4.60
2018-06-28T20:04:53.306Z,3.77
2018-06-28T20:07:23.368Z,3.73
2018-06-28T20:09:53.586Z,3.37
2018-06-28T20:12:28.968Z,3.97
2018-06-28T20:15:04.198Z,3.77
2018-06-28T20:17:39.515Z,3.70
2018-06-28T20:20:14.918Z,3.03
2018-06-28T20:22:45.971Z,3.07
2018-06-28T20:25:16.444Z,2.63
2018-06-28T20:27:52.708Z,3.07
2018-06-28T20:30:28.104Z,5.00
2018-06-28T20:33:03.400Z,3.63
2018-06-28T20:35:33.892Z,2.97
2018-06-28T20:38:03.986Z,3.07
2018-06-28T20:40:34.146Z,2.90
2018-06-28T20:43:04.252Z,3.33
2018-06-28T20:45:34.410Z,2.83
2018-06-28T20:48:04.644Z,2.27
2018-06-28T20:50:34.769Z,2.30
2018-06-28T20:53:06.822Z,2.30
2018-06-28T20:55:37.300Z,2.00
2018-06-28T20:58:08.262Z,2.40
2018-06-28T21:00:39.440Z,2.20
2018-06-28T21:03:09.848Z,2.63
2018-06-28T21:05:39.927Z,2.60
2018-06-28T21:08:10.065Z,2.47
2018-06-28T21:10:40.174Z,2.30
2018-06-28T21:13:10.391Z,2.40
2018-06-28T21:15:40.648Z,2.87
2018-06-28T21:18:10.929Z,2.90
2018-06-28T21:20:41.103Z,2.67
2018-06-28T21:23:11.250Z,3.17
2018-06-28T21:25:41.432Z,3.00
2018-06-28T21:28:11.612Z,2.73
2018-06-28T21:30:42.745Z,2.80
2018-06-28T21:33:12.943Z,2.67
2018-06-28T21:35:43.645Z,2.93
2018-06-28T21:38:13.760Z,3.20
2018-06-28T21:40:43.864Z,3.40
2018-06-28T21:43:13.944Z,3.67
2018-06-28T21:45:44.113Z,3.20
2018-06-28T21:48:14.332Z,3.20
2018-06-28T21:50:44.402Z,3.80
2018-06-28T21:53:14.492Z,3.13
2018-06-28T21:55:44.636Z,3.63
2018-06-28T21:58:14.793Z,4.13
2018-06-28T22:00:45.149Z,3.90
2018-06-28T22:03:15.049Z,3.70
2018-06-28T22:05:45.322Z,3.90
2018-06-28T22:08:16.568Z,4.00
2018-06-28T22:10:46.783Z,3.47
2018-06-28T22:13:16.851Z,3.80
2018-06-28T22:15:46.925Z,3.30
2018-06-28T22:18:17.722Z,4.30
2018-06-28T22:20:47.831Z,4.60
2018-06-28T22:23:17.957Z,4.50
2018-06-28T22:25:48.007Z,4.33
2018-06-28T22:28:18.679Z,3.73
2018-06-28T22:30:48.752Z,4.03
2018-06-28T22:33:18.909Z,3.80
2018-06-28T22:35:49.189Z,3.77
2018-06-28T22:38:19.338Z,3.60
2018-06-28T22:40:49.624Z,3.80
2018-06-28T22:43:19.743Z,3.43
2018-06-28T22:45:49.940Z,3.53
2018-06-28T22:48:20.062Z,3.63
2018-06-28T22:50:50.756Z,3.93
2018-06-28T22:53:20.860Z,4.07
2018-06-28T22:55:51.000Z,3.87
2018-06-28T22:58:21.155Z,3.87
2018-06-28T23:00:51.311Z,3.90
2018-06-28T23:03:21.389Z,3.87
2018-06-28T23:05:51.653Z,3.60
2018-06-28T23:08:21.841Z,3.43
2018-06-28T23:10:51.927Z,3.83
2018-06-28T23:13:22.029Z,3.63
2018-06-28T23:15:52.113Z,3.07
2018-06-28T23:18:22.271Z,3.40
2018-06-28T23:20:52.410Z,3.30
2018-06-28T23:23:22.511Z,2.80
2018-06-28T23:25:53.921Z,3.47
2018-06-28T23:28:24.085Z,3.53
2018-06-28T23:30:54.215Z,3.20
2018-06-28T23:33:24.409Z,4.50
2018-06-28T23:35:54.543Z,3.30
2018-06-28T23:38:24.730Z,3.50
2018-06-28T23:40:54.976Z,3.43
2018-06-28T23:43:25.141Z,3.10
2018-06-28T23:45:55.217Z,3.90
2018-06-28T23:48:25.309Z,4.37
2018-06-28T23:50:55.439Z,4.70
2018-06-28T23:53:25.775Z,4.57
2018-06-28T23:55:55.972Z,4.00
2018-06-28T23:58:26.108Z,3.10
